createdAt,value
2018-05-06T00:00:11.075Z,18.76
2018-05-06T00:02:39.475Z,18.66
2018-05-06T00:05:08.007Z,18.63
2018-05-06T00:07:36.254Z,18.40
2018-05-06T00:10:05.092Z,18.32
2018-05-06T00:12:33.378Z,18.32
2018-05-06T00:15:01.709Z,18.36
2018-05-06T00:17:30.046Z,18.11
2018-05-06T00:19:58.336Z,17.94
2018-05-06T00:22:26.607Z,17.94
2018-05-06T00:24:54.899Z,18.02
2018-05-06T00:27:23.178Z,18.15
2018-05-06T00:29:51.457Z,18.12
2018-05-06T00:32:19.713Z,18.00
2018-05-06T00:34:48.008Z,18.01
2018-05-06T00:37:16.351Z,17.95
2018-05-06T00:39:44.634Z,17.88
2018-05-06T00:42:13.019Z,17.68
2018-05-06T00:44:41.383Z,17.69
2018-05-06T00:47:10.009Z,17.77
2018-05-06T00:49:38.288Z,17.68
2018-05-06T00:52:07.261Z,17.66
2018-05-06T00:54:44.434Z,17.61
2018-05-06T00:57:12.772Z,17.71
2018-05-06T00:59:41.006Z,17.66
2018-05-06T01:02:09.290Z,17.54
2018-05-06T01:04:37.631Z,17.63
2018-05-06T01:07:05.952Z,17.69
2018-05-06T01:09:34.230Z,17.69
2018-05-06T01:12:02.516Z,17.75
2018-05-06T01:14:30.786Z,17.75
2018-05-06T01:16:59.197Z,17.66
2018-05-06T01:19:27.471Z,17.41
2018-05-06T01:21:55.758Z,17.49
2018-05-06T01:24:24.035Z,17.45
2018-05-06T01:26:52.311Z,17.29
2018-05-06T01:29:20.652Z,17.22
2018-05-06T01:31:49.007Z,17.25
2018-05-06T01:34:17.263Z,17.20
2018-05-06T01:36:45.544Z,17.14
2018-05-06T01:39:13.908Z,17.20
2018-05-06T01:41:42.231Z,17.20
2018-05-06T01:44:10.810Z,17.17
2018-05-06T01:46:39.480Z,17.23
2018-05-06T01:49:07.749Z,17.12
2018-05-06T01:51:36.256Z,17.10
2018-05-06T01:54:04.613Z,16.97
2018-05-06T01:56:32.896Z,17.03
2018-05-06T01:59:01.156Z,16.97
2018-05-06T02:01:29.422Z,17.00
2018-05-06T02:03:57.731Z,16.75
2018-05-06T02:06:26.226Z,16.70
2018-05-06T02:08:54.721Z,16.73
2018-05-06T02:11:23.051Z,16.73
2018-05-06T02:13:51.351Z,16.73
2018-05-06T02:16:20.576Z,16.77
2018-05-06T02:18:48.845Z,16.71
2018-05-06T02:21:17.148Z,16.53
2018-05-06T02:23:45.426Z,16.48
2018-05-06T02:26:13.697Z,16.39
2018-05-06T02:28:41.967Z,16.46
2018-05-06T02:31:10.345Z,16.27
2018-05-06T02:33:38.594Z,16.17
2018-05-06T02:36:06.899Z,16.17
2018-05-06T02:38:35.175Z,16.11
2018-05-06T02:41:03.587Z,16.11
2018-05-06T02:43:31.840Z,16.32
2018-05-06T02:46:00.107Z,16.43
2018-05-06T02:48:28.933Z,16.44
2018-05-06T02:50:57.191Z,16.33
2018-05-06T02:53:25.478Z,16.30
2018-05-06T02:55:53.736Z,16.25
2018-05-06T02:58:22.119Z,15.95
2018-05-06T03:00:50.370Z,15.76
2018-05-06T03:03:18.661Z,15.80
2018-05-06T03:05:47.041Z,15.87
2018-05-06T03:08:15.326Z,15.91
2018-05-06T03:10:43.653Z,15.97
2018-05-06T03:13:11.966Z,15.94
2018-05-06T03:15:40.319Z,15.87
2018-05-06T03:18:08.686Z,15.90
2018-05-06T03:20:36.930Z,15.93
2018-05-06T03:23:05.289Z,15.80
2018-05-06T03:25:33.616Z,15.77
2018-05-06T03:28:01.911Z,15.57
2018-05-06T03:30:30.215Z,15.53
2018-05-06T03:32:58.698Z,15.65
2018-05-06T03:35:27.026Z,15.54
2018-05-06T03:37:55.354Z,15.38
2018-05-06T03:40:23.692Z,15.40
2018-05-06T03:42:51.974Z,15.28
2018-05-06T03:45:20.278Z,15.32
2018-05-06T03:47:48.548Z,15.40
2018-05-06T03:50:17.365Z,15.41
2018-05-06T03:52:45.626Z,15.41
2018-05-06T03:55:13.958Z,15.47
2018-05-06T03:58:07.785Z,15.42
2018-05-06T04:00:42.577Z,15.45
2018-05-06T04:03:10.878Z,15.56
2018-05-06T04:05:39.191Z,15.51
2018-05-06T04:08:07.506Z,15.37
2018-05-06T04:10:35.866Z,15.30
2018-05-06T04:13:04.154Z,15.32
2018-05-06T04:15:32.931Z,15.38
2018-05-06T04:18:01.232Z,15.46
2018-05-06T04:20:29.530Z,15.38
2018-05-06T04:22:57.946Z,15.44
2018-05-06T04:25:26.208Z,15.42
2018-05-06T04:27:54.532Z,15.41
2018-05-06T04:30:22.921Z,15.40
2018-05-06T04:32:51.149Z,15.32
2018-05-06T04:35:19.432Z,15.31
2018-05-06T04:37:47.866Z,15.28
2018-05-06T04:40:16.132Z,15.40
2018-05-06T04:42:44.430Z,15.24
2018-05-06T04:45:13.316Z,15.08
2018-05-06T04:47:41.592Z,14.90
2018-05-06T04:50:09.879Z,14.96
2018-05-06T04:52:38.274Z,14.97
2018-05-06T04:55:07.246Z,14.99
2018-05-06T04:57:36.294Z,15.12
2018-05-06T05:00:04.564Z,15.22
2018-05-06T05:02:32.886Z,15.14
2018-05-06T05:05:01.714Z,15.12
2018-05-06T05:07:30.012Z,15.19
2018-05-06T05:09:58.332Z,15.24
2018-05-06T05:12:26.679Z,15.30
2018-05-06T05:14:54.990Z,15.33
2018-05-06T05:17:23.285Z,15.30
2018-05-06T05:19:51.611Z,15.44
2018-05-06T05:22:19.876Z,15.51
2018-05-06T05:24:48.173Z,15.52
2018-05-06T05:27:16.432Z,15.56
2018-05-06T05:29:44.760Z,15.62
2018-05-06T05:32:13.022Z,15.77
2018-05-06T05:34:41.385Z,15.84
2018-05-06T05:37:12.767Z,15.92
2018-05-06T05:39:41.963Z,15.91
2018-05-06T05:42:10.238Z,15.96
2018-05-06T05:44:38.520Z,15.94
2018-05-06T05:47:06.799Z,15.99
2018-05-06T05:49:35.086Z,16.01
2018-05-06T05:52:03.363Z,15.99
2018-05-06T05:54:31.655Z,16.04
2018-05-06T05:57:00.006Z,16.17
2018-05-06T05:59:28.380Z,16.26
2018-05-06T06:01:56.803Z,16.30
2018-05-06T06:04:25.112Z,16.31
2018-05-06T06:06:53.426Z,16.26
2018-05-06T06:09:21.693Z,16.37
2018-05-06T06:11:50.018Z,16.42
2018-05-06T06:14:18.285Z,16.51
2018-05-06T06:16:46.747Z,16.61
2018-05-06T06:19:15.062Z,16.75
2018-05-06T06:21:43.456Z,16.80
2018-05-06T06:24:11.903Z,16.86
2018-05-06T06:26:40.226Z,16.90
2018-05-06T06:29:08.528Z,17.01
2018-05-06T06:31:36.806Z,17.02
2018-05-06T06:34:05.098Z,17.14
2018-05-06T06:36:33.758Z,17.25
2018-05-06T06:39:02.047Z,17.38
2018-05-06T06:41:30.356Z,17.50
2018-05-06T06:43:58.796Z,17.66
2018-05-06T06:46:27.086Z,17.74
2018-05-06T06:48:55.400Z,17.76
2018-05-06T06:51:23.739Z,17.67
2018-05-06T06:53:52.035Z,17.70
2018-05-06T06:56:20.333Z,17.43
2018-05-06T06:58:48.648Z,17.55
2018-05-06T07:01:16.985Z,17.70
2018-05-06T07:03:45.289Z,17.91
2018-05-06T07:06:13.554Z,18.12
2018-05-06T07:08:41.873Z,18.03
2018-05-06T07:11:10.174Z,17.84
2018-05-06T07:13:38.467Z,18.03
2018-05-06T07:16:06.734Z,18.26
2018-05-06T07:18:35.038Z,18.43
2018-05-06T07:21:03.323Z,18.60
2018-05-06T07:23:31.655Z,18.81
2018-05-06T07:25:59.903Z,19.00
2018-05-06T07:28:28.242Z,19.16
2018-05-06T07:30:57.548Z,19.15
2018-05-06T07:33:25.873Z,19.21
2018-05-06T07:35:54.154Z,19.16
2018-05-06T07:38:22.505Z,19.17
2018-05-06T07:40:51.569Z,19.19
2018-05-06T07:43:19.877Z,19.21
2018-05-06T07:45:48.236Z,18.95
2018-05-06T07:48:16.510Z,19.23
2018-05-06T07:50:44.833Z,19.26
2018-05-06T07:53:13.083Z,19.15
2018-05-06T07:55:41.440Z,19.25
2018-05-06T07:58:09.740Z,19.45
2018-05-06T08:00:38.048Z,19.44
2018-05-06T08:03:06.376Z,19.39
2018-05-06T08:05:34.656Z,19.58
2018-05-06T08:08:03.042Z,19.66
2018-05-06T08:10:31.330Z,19.98
2018-05-06T08:12:59.658Z,20.28
2018-05-06T08:15:27.966Z,20.47
2018-05-06T08:17:56.967Z,20.39
2018-05-06T08:20:25.287Z,20.15
2018-05-06T08:22:53.734Z,20.31
2018-05-06T08:25:22.067Z,20.59
2018-05-06T08:27:50.422Z,20.46
2018-05-06T08:30:18.712Z,20.60
2018-05-06T08:32:47.016Z,20.65
2018-05-06T08:35:15.278Z,20.81
2018-05-06T08:37:43.610Z,20.90
2018-05-06T08:40:11.907Z,20.84
2018-05-06T08:42:40.226Z,20.63
2018-05-06T08:45:08.515Z,20.96
2018-05-06T08:47:36.827Z,21.16
2018-05-06T08:50:05.136Z,21.25
2018-05-06T08:52:33.496Z,21.19
2018-05-06T08:55:01.790Z,21.31
2018-05-06T08:57:30.123Z,21.50
2018-05-06T08:59:58.410Z,21.60
2018-05-06T09:02:27.500Z,21.47
2018-05-06T09:04:55.773Z,21.26
2018-05-06T09:07:24.050Z,21.27
2018-05-06T09:09:52.386Z,21.41
2018-05-06T09:12:20.697Z,21.52
2018-05-06T09:14:49.595Z,21.42
2018-05-06T09:17:18.140Z,21.27
2018-05-06T09:19:46.547Z,21.43
2018-05-06T09:22:15.388Z,21.55
2018-05-06T09:24:43.730Z,21.88
2018-05-06T09:27:12.013Z,22.17
2018-05-06T09:29:42.016Z,21.79
2018-05-06T09:32:10.261Z,21.84
2018-05-06T09:34:38.537Z,21.84
2018-05-06T09:37:06.806Z,21.94
2018-05-06T09:39:35.096Z,22.13
2018-05-06T09:42:03.351Z,22.27
2018-05-06T09:44:31.627Z,22.52
2018-05-06T09:46:59.923Z,22.67
2018-05-06T09:49:28.257Z,22.80
2018-05-06T09:51:56.587Z,22.58
2018-05-06T09:54:24.912Z,22.79
2018-05-06T09:56:53.186Z,22.86
2018-05-06T09:59:21.515Z,22.88
2018-05-06T10:01:49.879Z,23.06
2018-05-06T10:04:18.137Z,23.27
2018-05-06T10:06:46.425Z,23.37
2018-05-06T10:09:14.867Z,23.64
2018-05-06T10:11:43.149Z,23.78
2018-05-06T10:14:11.418Z,23.86
2018-05-06T10:16:39.718Z,23.94
2018-05-06T10:19:07.986Z,23.83
2018-05-06T10:21:36.291Z,23.95
2018-05-06T10:24:04.566Z,23.93
2018-05-06T10:26:32.855Z,24.01
2018-05-06T10:29:01.143Z,24.24
2018-05-06T10:31:31.283Z,24.28
2018-05-06T10:33:59.674Z,24.22
2018-05-06T10:36:27.942Z,24.17
2018-05-06T10:38:56.213Z,24.18
2018-05-06T10:41:24.493Z,24.33
2018-05-06T10:43:52.756Z,24.61
2018-05-06T10:46:21.059Z,24.59
2018-05-06T10:48:49.342Z,24.72
2018-05-06T10:51:17.657Z,24.69
2018-05-06T10:53:46.157Z,24.78
2018-05-06T10:56:14.475Z,24.93
2018-05-06T10:58:42.877Z,24.95
2018-05-06T11:01:11.965Z,24.67
2018-05-06T11:03:40.268Z,24.91
2018-05-06T11:06:08.558Z,24.99
2018-05-06T11:08:36.847Z,24.93
2018-05-06T11:11:05.145Z,25.14
2018-05-06T11:13:34.365Z,25.08
2018-05-06T11:16:02.633Z,25.38
2018-05-06T11:18:30.993Z,25.50
2018-05-06T11:20:59.338Z,25.69
2018-05-06T11:23:27.688Z,25.76
2018-05-06T11:25:56.911Z,25.83
2018-05-06T11:28:25.251Z,25.85
2018-05-06T11:30:53.881Z,25.92
2018-05-06T11:33:22.240Z,25.53
2018-05-06T11:35:50.498Z,25.78
2018-05-06T11:38:18.862Z,25.88
2018-05-06T11:40:47.149Z,25.93
2018-05-06T11:43:15.577Z,26.03
2018-05-06T11:45:43.850Z,26.05
2018-05-06T11:48:12.223Z,26.23
2018-05-06T11:50:40.417Z,26.38
2018-05-06T11:53:09.299Z,26.34
2018-05-06T11:55:37.605Z,26.41
2018-05-06T11:58:05.909Z,25.83
2018-05-06T12:00:34.235Z,26.29
2018-05-06T12:03:02.509Z,26.42
2018-05-06T12:05:30.813Z,26.69
2018-05-06T12:07:59.283Z,26.58
2018-05-06T12:10:27.593Z,26.71
2018-05-06T12:12:55.872Z,26.86
2018-05-06T12:15:24.215Z,27.04
2018-05-06T12:17:52.472Z,27.28
2018-05-06T12:20:20.790Z,27.02
2018-05-06T12:22:49.206Z,27.30
2018-05-06T12:25:17.610Z,27.53
2018-05-06T12:27:45.886Z,27.60
2018-05-06T12:30:14.193Z,27.40
2018-05-06T12:32:42.605Z,27.56
2018-05-06T12:35:10.871Z,27.58
2018-05-06T12:37:39.165Z,27.89
2018-05-06T12:40:08.395Z,28.06
2018-05-06T12:42:36.782Z,27.98
2018-05-06T12:45:05.155Z,27.92
2018-05-06T12:47:33.418Z,28.17
2018-05-06T12:50:01.733Z,28.03
2018-05-06T12:52:30.020Z,27.73
2018-05-06T12:54:58.429Z,28.12
2018-05-06T12:57:26.827Z,28.45
2018-05-06T12:59:55.153Z,28.27
2018-05-06T13:02:23.653Z,28.47
2018-05-06T13:04:51.947Z,28.60
2018-05-06T13:07:20.313Z,28.76
2018-05-06T13:09:48.553Z,28.42
2018-05-06T13:12:16.835Z,28.23
2018-05-06T13:14:45.501Z,28.18
2018-05-06T13:17:15.601Z,28.57
2018-05-06T13:19:43.918Z,28.82
2018-05-06T13:22:12.194Z,28.80
2018-05-06T13:24:40.504Z,29.02
2018-05-06T13:27:08.766Z,29.10
2018-05-06T13:29:37.035Z,29.14
2018-05-06T13:32:05.315Z,29.29
2018-05-06T13:34:34.709Z,29.52
2018-05-06T13:37:03.094Z,29.90
2018-05-06T13:39:31.343Z,30.09
2018-05-06T13:41:59.626Z,29.37
2018-05-06T13:44:28.463Z,29.66
2018-05-06T13:46:56.728Z,29.91
2018-05-06T13:49:25.021Z,29.88
2018-05-06T13:51:53.281Z,29.46
2018-05-06T13:54:21.575Z,29.11
2018-05-06T13:56:49.841Z,29.38
2018-05-06T13:59:18.134Z,29.49
2018-05-06T14:01:46.412Z,29.15
2018-05-06T14:04:14.766Z,29.35
2018-05-06T14:06:43.019Z,29.80
2018-05-06T14:09:11.294Z,30.25
2018-05-06T14:11:39.571Z,30.58
2018-05-06T14:14:07.906Z,30.08
2018-05-06T14:16:36.221Z,29.41
2018-05-06T14:19:04.611Z,29.52
2018-05-06T14:21:32.987Z,30.36
2018-05-06T14:24:01.395Z,30.19
2018-05-06T14:26:29.845Z,30.45
2018-05-06T14:28:58.325Z,30.67
2018-05-06T14:31:26.610Z,30.57
2018-05-06T14:33:55.076Z,31.00
2018-05-06T14:36:24.500Z,30.86
2018-05-06T14:38:53.489Z,30.95
2018-05-06T14:41:21.910Z,30.85
2018-05-06T14:43:50.267Z,31.05
2018-05-06T14:46:30.238Z,30.84
2018-05-06T14:48:58.798Z,30.76
2018-05-06T14:51:27.171Z,30.96
2018-05-06T14:53:55.421Z,30.82
2018-05-06T14:56:23.747Z,31.28
2018-05-06T14:58:52.102Z,31.74
2018-05-06T15:01:21.322Z,31.99
2018-05-06T15:03:49.599Z,31.68
2018-05-06T15:06:17.922Z,31.83
2018-05-06T15:08:46.224Z,31.87
2018-05-06T15:11:14.505Z,31.98
2018-05-06T15:13:42.780Z,32.10
2018-05-06T15:16:11.346Z,32.18
2018-05-06T15:18:39.640Z,31.87
2018-05-06T15:21:07.950Z,31.75
2018-05-06T15:23:36.196Z,32.03
2018-05-06T15:26:04.514Z,31.90
2018-05-06T15:28:32.791Z,32.14
2018-05-06T15:31:01.100Z,32.41
2018-05-06T15:33:29.376Z,31.21
2018-05-06T15:35:57.688Z,31.45
2018-05-06T15:38:25.981Z,31.92
2018-05-06T15:40:54.244Z,32.32
2018-05-06T15:43:22.558Z,32.57
2018-05-06T15:45:50.869Z,32.90
2018-05-06T15:48:19.190Z,33.13
2018-05-06T15:50:47.454Z,33.13
2018-05-06T15:53:15.755Z,32.65
2018-05-06T15:55:44.926Z,32.12
2018-05-06T15:58:13.502Z,32.62
2018-05-06T16:00:41.785Z,33.17
2018-05-06T16:03:21.793Z,33.12
2018-05-06T16:05:50.111Z,32.55
2018-05-06T16:08:18.407Z,32.56
2018-05-06T16:10:46.674Z,31.91
2018-05-06T16:13:14.977Z,31.16
2018-05-06T16:15:43.227Z,32.22
2018-05-06T16:18:11.555Z,32.39
2018-05-06T16:20:39.858Z,32.18
2018-05-06T16:23:08.162Z,32.15
2018-05-06T16:25:36.434Z,32.29
2018-05-06T16:28:04.787Z,32.72
2018-05-06T16:30:34.007Z,32.89
2018-05-06T16:33:02.376Z,33.08
2018-05-06T16:35:30.701Z,33.40
2018-05-06T16:37:59.282Z,33.18
2018-05-06T16:40:27.525Z,32.92
2018-05-06T16:42:55.792Z,33.28
2018-05-06T16:45:24.129Z,31.67
2018-05-06T16:47:52.455Z,30.91
2018-05-06T16:50:20.735Z,31.09
2018-05-06T16:52:49.016Z,31.73
2018-05-06T16:55:17.338Z,31.49
2018-05-06T16:57:45.956Z,31.89
2018-05-06T17:00:14.513Z,31.93
2018-05-06T17:02:42.809Z,31.52
2018-05-06T17:05:11.655Z,31.08
2018-05-06T17:07:40.600Z,30.53
2018-05-06T17:10:08.933Z,30.31
2018-05-06T17:12:37.210Z,29.97
2018-05-06T17:15:05.499Z,29.77
2018-05-06T17:17:33.827Z,29.59
2018-05-06T17:20:17.535Z,29.40
2018-05-06T17:22:45.830Z,29.63
2018-05-06T17:25:14.105Z,28.84
2018-05-06T17:27:42.948Z,28.71
2018-05-06T17:30:18.736Z,28.61
2018-05-06T17:32:48.475Z,28.57
2018-05-06T17:35:16.815Z,28.60
2018-05-06T17:37:45.102Z,28.49
2018-05-06T17:40:14.622Z,28.36
2018-05-06T17:42:42.978Z,28.28
2018-05-06T17:45:11.202Z,28.29
2018-05-06T17:47:39.787Z,28.35
2018-05-06T17:50:08.123Z,28.22
2018-05-06T17:52:36.643Z,28.15
2018-05-06T17:55:05.146Z,27.97
2018-05-06T17:57:33.442Z,27.96
2018-05-06T18:00:01.703Z,27.83
2018-05-06T18:02:30.035Z,27.76
2018-05-06T18:04:58.349Z,27.83
2018-05-06T18:07:26.701Z,27.95
2018-05-06T18:09:55.048Z,27.68
2018-05-06T18:14:57.898Z,27.59
2018-05-06T18:17:26.171Z,27.46
2018-05-06T18:19:55.053Z,27.50
2018-05-06T18:22:23.325Z,27.42
2018-05-06T18:24:51.775Z,27.28
2018-05-06T18:27:20.308Z,27.33
2018-05-06T18:29:49.122Z,27.31
2018-05-06T18:32:18.565Z,27.30
2018-05-06T18:34:47.001Z,27.15
2018-05-06T18:37:15.318Z,27.14
2018-05-06T18:39:46.223Z,26.92
2018-05-06T18:42:18.539Z,26.80
2018-05-06T18:44:50.674Z,26.77
2018-05-06T18:47:20.682Z,26.76
2018-05-06T18:49:49.142Z,26.67
2018-05-06T18:52:17.554Z,26.57
2018-05-06T18:54:45.961Z,26.60
2018-05-06T18:57:16.492Z,26.53
2018-05-06T18:59:45.707Z,26.57
2018-05-06T19:02:14.023Z,26.54
2018-05-06T19:04:42.342Z,25.84
2018-05-06T19:07:11.482Z,26.40
2018-05-06T19:09:41.168Z,26.29
2018-05-06T19:12:09.530Z,26.20
2018-05-06T19:14:38.366Z,26.07
2018-05-06T19:17:09.146Z,26.05
2018-05-06T19:19:39.957Z,25.91
2018-05-06T19:22:09.771Z,25.94
2018-05-06T19:24:38.082Z,25.71
2018-05-06T19:27:06.405Z,25.48
2018-05-06T19:29:35.733Z,25.32
2018-05-06T19:32:04.089Z,25.29
2018-05-06T19:34:32.381Z,25.11
2018-05-06T19:37:00.729Z,24.79
2018-05-06T19:39:30.685Z,24.74
2018-05-06T19:42:01.051Z,24.74
2018-05-06T19:44:30.127Z,24.65
2018-05-06T19:47:05.436Z,24.57
2018-05-06T19:49:45.719Z,24.42
2018-05-06T19:52:14.967Z,24.30
2018-05-06T19:54:54.156Z,24.15
2018-05-06T19:57:22.954Z,24.12
2018-05-06T19:59:51.335Z,24.08
2018-05-06T20:02:19.786Z,23.90
2018-05-06T20:04:51.112Z,23.83
2018-05-06T20:07:19.573Z,23.85
2018-05-06T20:09:47.812Z,23.70
2018-05-06T20:12:16.100Z,23.54
2018-05-06T20:14:44.387Z,23.29
2018-05-06T20:17:13.156Z,23.27
2018-05-06T20:19:41.438Z,23.20
2018-05-06T20:22:09.731Z,23.24
2018-05-06T20:24:38.510Z,23.17
2018-05-06T20:27:06.799Z,22.96
2018-05-06T20:29:35.096Z,22.90
2018-05-06T20:32:03.382Z,22.60
2018-05-06T20:34:31.674Z,22.45
2018-05-06T20:36:59.933Z,22.41
2018-05-06T20:39:28.274Z,22.47
2018-05-06T20:41:56.648Z,22.50
2018-05-06T20:44:25.033Z,22.43
2018-05-06T20:46:53.370Z,22.28
2018-05-06T20:49:21.726Z,21.99
2018-05-06T20:51:51.124Z,21.99
2018-05-06T20:54:19.376Z,21.86
2018-05-06T20:56:47.697Z,21.93
2018-05-06T20:59:16.294Z,21.76
2018-05-06T21:01:44.981Z,21.77
2018-05-06T21:04:13.332Z,21.93
2018-05-06T21:06:41.610Z,21.92
2018-05-06T21:09:10.567Z,21.60
2018-05-06T21:11:39.744Z,21.50
2018-05-06T21:14:07.990Z,21.31
2018-05-06T21:16:36.612Z,21.71
2018-05-06T21:19:04.975Z,22.38
2018-05-06T21:21:33.201Z,22.90
2018-05-06T21:24:01.519Z,23.12
2018-05-06T21:26:29.831Z,23.19
2018-05-06T21:28:58.269Z,23.17
2018-05-06T21:31:26.629Z,23.22
2018-05-06T21:33:54.930Z,23.30
2018-05-06T21:36:24.936Z,22.81
2018-05-06T21:38:53.238Z,22.00
2018-05-06T21:41:21.490Z,21.53
2018-05-06T21:43:49.834Z,21.27
2018-05-06T21:46:18.123Z,21.11
2018-05-06T21:48:46.424Z,21.07
2018-05-06T21:51:14.792Z,21.02
2018-05-06T21:53:43.110Z,21.06
2018-05-06T21:56:15.376Z,21.02
2018-05-06T21:58:46.765Z,20.95
2018-05-06T22:01:23.909Z,20.86
2018-05-06T22:03:52.401Z,20.87
2018-05-06T22:06:25.920Z,20.83
2018-05-06T22:08:55.279Z,20.82
2018-05-06T22:11:23.672Z,20.74
2018-05-06T22:13:55.548Z,20.81
2018-05-06T22:16:23.822Z,20.68
2018-05-06T22:18:52.127Z,20.45
2018-05-06T22:21:20.368Z,20.44
2018-05-06T22:23:48.667Z,20.33
2018-05-06T22:26:17.007Z,20.13
2018-05-06T22:28:45.305Z,19.90
2018-05-06T22:31:13.649Z,19.81
2018-05-06T22:33:42.704Z,19.90
2018-05-06T22:36:11.051Z,19.76
2018-05-06T22:38:50.825Z,19.74
2018-05-06T22:41:19.145Z,19.91
2018-05-06T22:43:50.803Z,19.83
2018-05-06T22:46:29.783Z,19.87
2018-05-06T22:48:58.222Z,19.72
2018-05-06T22:51:45.804Z,19.65
2018-05-06T22:54:19.300Z,19.48
2018-05-06T22:56:47.649Z,19.44
2018-05-06T22:59:15.926Z,19.49
2018-05-06T23:01:44.224Z,19.33
2018-05-06T23:04:12.551Z,19.25
2018-05-06T23:06:40.897Z,19.32
2018-05-06T23:09:10.230Z,19.46
2018-05-06T23:11:38.507Z,19.43
2018-05-06T23:14:06.785Z,19.28
2018-05-06T23:16:35.082Z,19.22
2018-05-06T23:19:03.562Z,18.99
2018-05-06T23:21:31.831Z,19.07
2018-05-06T23:24:00.121Z,19.07
2018-05-06T23:26:28.472Z,19.05
2018-05-06T23:28:56.682Z,19.06
2018-05-06T23:31:24.959Z,19.12
2018-05-06T23:33:53.402Z,19.02
2018-05-06T23:36:21.733Z,18.91
2018-05-06T23:38:50.008Z,18.80
2018-05-06T23:41:18.267Z,18.77
2018-05-06T23:43:46.581Z,18.67
2018-05-06T23:46:14.875Z,18.66
2018-05-06T23:48:43.759Z,18.52
2018-05-06T23:51:12.080Z,18.35
2018-05-06T23:53:40.364Z,18.38
2018-05-06T23:56:08.679Z,18.41
2018-05-06T23:58:36.974Z,18.29
